Time;durP1;ratioP1;P1;durP2;ratioP2;P2;SDS_P1;SDS_P2;PMS_P1;PMS_P2;Temp;Humidity;BMP_temperature;BMP_pressure;BME280_temperature;BME280_humidity;BME280_pressure;Samples;Min_cycle;Max_cycle;Signal;HPM_P1;HPM_P2
2021/07/19 00:01:00;;;;;;;9.13;5.35;;;19.10;99.90;;;;;;4985255;28;20401;-77
2021/07/19 00:03:25;;;;;;;8.00;5.20;;;19.00;99.90;;;;;;4982344;28;20105;-76
2021/07/19 00:05:51;;;;;;;7.60;5.50;;;19.00;99.90;;;;;;4985911;28;20117;-75
2021/07/19 00:08:16;;;;;;;6.10;4.80;;;19.10;99.90;;;;;;4988955;28;20077;-76
2021/07/19 00:10:42;;;;;;;7.75;4.72;;;19.20;99.90;;;;;;4984801;28;20038;-76
2021/07/19 00:13:08;;;;;;;7.82;5.32;;;19.30;99.90;;;;;;4982190;28;20425;-76
2021/07/19 00:15:34;;;;;;;7.63;5.32;;;19.40;99.90;;;;;;4984989;28;20049;-76
2021/07/19 00:18:00;;;;;;;6.10;4.65;;;19.40;99.90;;;;;;4977322;28;20477;-76
2021/07/19 00:20:25;;;;;;;6.43;5.45;;;19.40;99.90;;;;;;4986617;28;20031;-76
2021/07/19 00:22:54;;;;;;;7.60;5.85;;;18.50;99.90;;;;;;4988755;28;20105;-75
2021/07/19 00:25:21;;;;;;;7.88;5.30;;;18.20;99.90;;;;;;4975265;28;20030;-76
2021/07/19 00:27:47;;;;;;;7.40;5.20;;;18.20;99.90;;;;;;4988508;28;20018;-76
2021/07/19 00:30:15;;;;;;;7.95;5.38;;;18.70;99.90;;;;;;4984025;28;20014;-76
2021/07/19 00:32:42;;;;;;;9.23;5.43;;;18.70;99.90;;;;;;4981939;28;20363;-74
2021/07/19 00:35:08;;;;;;;9.32;4.75;;;18.50;99.90;;;;;;4984370;28;20018;-74
2021/07/19 00:37:35;;;;;;;10.48;5.10;;;18.60;99.90;;;;;;4988178;28;20026;-74
2021/07/19 00:40:06;;;;;;;6.38;5.18;;;18.60;99.90;;;;;;4985174;28;20058;-77
2021/07/19 00:42:31;;;;;;;8.65;5.50;;;18.50;99.90;;;;;;4993247;28;20030;-76
2021/07/19 00:44:57;;;;;;;5.65;5.10;;;18.50;99.90;;;;;;4982710;28;20540;-75
2021/07/19 00:47:23;;;;;;;8.30;5.05;;;18.50;99.90;;;;;;4992197;28;20049;-76
2021/07/19 00:49:49;;;;;;;6.88;4.93;;;18.60;99.90;;;;;;4982505;28;20117;-75
2021/07/19 00:52:14;;;;;;;5.93;5.32;;;18.70;99.90;;;;;;4978041;28;20026;-75
2021/07/19 00:54:43;;;;;;;6.93;5.45;;;18.60;99.90;;;;;;4982684;28;20038;-75
2021/07/19 00:57:12;;;;;;;7.57;5.15;;;18.60;99.90;;;;;;4978483;28;20026;-75
2021/07/19 00:59:38;;;;;;;6.80;5.25;;;18.40;99.90;;;;;;4983079;28;20027;-76
2021/07/19 01:02:05;;;;;;;9.80;5.45;;;18.20;99.90;;;;;;4992713;28;20018;-76
2021/07/19 01:04:31;;;;;;;9.50;6.05;;;18.10;99.90;;;;;;4994138;28;20084;-77
2021/07/19 01:07:02;;;;;;;7.80;5.20;;;18.20;99.90;;;;;;4975919;28;20101;-74
2021/07/19 01:09:28;;;;;;;7.30;5.32;;;18.30;99.90;;;;;;4974747;28;20058;-75
2021/07/19 01:11:56;;;;;;;9.43;5.00;;;18.40;99.90;;;;;;4986502;28;20543;-75
2021/07/19 01:14:22;;;;;;;8.70;5.63;;;18.20;99.90;;;;;;4987253;28;20042;-75
2021/07/19 01:16:47;;;;;;;9.20;5.55;;;18.20;99.90;;;;;;4986567;28;20428;-75
2021/07/19 01:19:13;;;;;;;11.15;5.88;;;18.20;99.90;;;;;;4985906;28;20033;-75
2021/07/19 01:21:41;;;;;;;10.77;5.50;;;18.20;99.90;;;;;;4979606;28;20026;-75
2021/07/19 01:24:24;;;;;;;7.05;5.65;;;18.20;99.90;;;;;;4980967;28;20019;-76
2021/07/19 01:27:24;;;;;;;7.88;5.47;;;18.00;99.90;;;;;;4978791;28;20022;-76
2021/07/19 01:29:51;;;;;;;9.43;5.80;;;18.20;99.90;;;;;;4980563;28;20109;-75
2021/07/19 01:32:18;;;;;;;6.82;5.30;;;18.20;99.90;;;;;;4980622;28;20054;-76
2021/07/19 01:34:44;;;;;;;7.28;5.82;;;18.30;99.90;;;;;;4986287;28;20037;-77
2021/07/19 01:37:10;;;;;;;12.38;5.45;;;18.20;99.90;;;;;;4988174;28;20034;-76
2021/07/19 01:39:37;;;;;;;7.00;5.60;;;18.20;99.90;;;;;;4981173;28;20080;-77
2021/07/19 01:42:05;;;;;;;9.07;5.35;;;17.90;99.90;;;;;;4980414;28;20031;-78
2021/07/19 01:44:31;;;;;;;7.93;5.32;;;17.90;99.90;;;;;;4982482;28;20121;-77
2021/07/19 01:46:59;;;;;;;7.82;5.90;;;18.10;99.90;;;;;;4987492;28;20058;-77
2021/07/19 01:49:26;;;;;;;9.68;5.35;;;18.10;99.90;;;;;;4980504;28;20507;-78
2021/07/19 01:51:53;;;;;;;10.43;5.80;;;18.00;99.90;;;;;;4991524;28;20285;-75
2021/07/19 01:54:19;;;;;;;6.88;5.30;;;17.90;99.90;;;;;;4992732;28;20034;-77
2021/07/19 01:56:47;;;;;;;7.97;5.55;;;18.00;99.90;;;;;;4992780;28;20061;-77
2021/07/19 01:59:13;;;;;;;8.32;6.18;;;17.50;99.90;;;;;;4991853;28;20026;-77
2021/07/19 02:01:40;;;;;;;13.25;6.13;;;17.10;99.90;;;;;;4981213;28;20030;-77
2021/07/19 02:04:06;;;;;;;10.45;5.70;;;17.20;99.90;;;;;;4986685;28;20034;-76
2021/07/19 02:06:33;;;;;;;9.93;5.38;;;17.50;99.90;;;;;;4987978;28;20057;-77
2021/07/19 02:09:03;;;;;;;6.70;5.35;;;17.70;99.90;;;;;;4985290;28;20091;-76
2021/07/19 02:11:30;;;;;;;7.60;5.57;;;17.90;99.90;;;;;;4986706;28;20460;-76
2021/07/19 02:13:57;;;;;;;9.93;5.38;;;17.90;99.90;;;;;;4983169;28;20022;-74
2021/07/19 02:16:25;;;;;;;7.43;5.50;;;17.80;99.90;;;;;;4990322;28;20093;-75
2021/07/19 02:18:52;;;;;;;7.97;5.55;;;17.80;99.90;;;;;;4973617;28;20486;-76
2021/07/19 02:21:23;;;;;;;11.70;6.30;;;17.90;99.90;;;;;;4986565;28;20414;-75
2021/07/19 02:23:50;;;;;;;6.75;5.15;;;17.80;99.90;;;;;;4982404;28;20648;-75
2021/07/19 02:26:15;;;;;;;9.10;5.45;;;17.80;99.90;;;;;;4979525;28;20022;-76
2021/07/19 02:28:42;;;;;;;7.72;5.90;;;17.70;99.90;;;;;;4982523;28;20023;-75
2021/07/19 02:31:08;;;;;;;6.60;5.57;;;17.70;99.90;;;;;;4986352;28;20539;-75
2021/07/19 02:33:36;;;;;;;9.13;6.07;;;17.70;99.90;;;;;;4983297;28;20022;-75
2021/07/19 02:36:04;;;;;;;9.63;5.60;;;17.60;99.90;;;;;;4979428;28;20034;-75
2021/07/19 02:38:31;;;;;;;6.60;5.60;;;17.70;99.90;;;;;;4980810;28;20030;-75
2021/07/19 02:40:58;;;;;;;9.20;5.47;;;17.60;99.90;;;;;;4977466;28;20048;-75
2021/07/19 02:43:24;;;;;;;9.63;6.40;;;17.80;99.90;;;;;;4988865;28;20101;-75
2021/07/19 02:45:53;;;;;;;8.20;5.63;;;17.60;99.90;;;;;;4978057;28;20143;-75
2021/07/19 02:48:20;;;;;;;8.90;5.80;;;17.40;99.90;;;;;;4979654;28;20027;-75
2021/07/19 02:50:50;;;;;;;10.10;6.30;;;17.00;99.90;;;;;;4971686;28;20067;-75
2021/07/19 02:53:18;;;;;;;7.40;5.78;;;17.10;99.90;;;;;;4983899;28;20030;-75
2021/07/19 02:55:45;;;;;;;6.90;6.18;;;17.30;99.90;;;;;;4973358;28;20037;-75
2021/07/19 02:58:13;;;;;;;9.48;6.38;;;17.20;99.90;;;;;;4984264;28;20023;-75
2021/07/19 03:00:39;;;;;;;10.43;5.93;;;17.20;99.90;;;;;;4972871;28;20026;-74
2021/07/19 03:03:09;;;;;;;8.57;6.45;;;17.30;99.90;;;;;;4972941;28;20030;-75
2021/07/19 03:05:40;;;;;;;8.88;6.00;;;17.30;99.90;;;;;;4979626;28;20404;-74
2021/07/19 03:08:09;;;;;;;8.50;5.90;;;17.20;99.90;;;;;;4978544;28;20026;-74
2021/07/19 03:10:35;;;;;;;9.40;6.25;;;17.30;99.90;;;;;;4971619;28;20044;-75
2021/07/19 03:13:08;;;;;;;9.23;5.90;;;17.40;99.90;;;;;;4984572;28;20023;-74
2021/07/19 03:15:34;;;;;;;9.95;6.40;;;17.40;99.90;;;;;;4972704;28;20388;-75
2021/07/19 03:18:03;;;;;;;7.38;5.95;;;17.40;99.90;;;;;;4985806;28;20073;-75
2021/07/19 03:20:30;;;;;;;9.05;6.10;;;17.40;99.90;;;;;;4980474;28;20154;-75
2021/07/19 03:22:56;;;;;;;11.10;5.43;;;17.50;99.90;;;;;;4976562;28;20485;-76
2021/07/19 03:25:25;;;;;;;6.80;5.55;;;17.60;99.90;;;;;;4980564;28;20041;-76
2021/07/19 03:27:54;;;;;;;9.55;5.95;;;17.60;99.90;;;;;;4979352;28;20077;-75
2021/07/19 03:30:21;;;;;;;9.50;5.90;;;17.60;99.90;;;;;;4982110;28;20485;-75
2021/07/19 03:32:49;;;;;;;8.07;5.68;;;17.50;99.90;;;;;;4984286;28;20038;-74
2021/07/19 03:35:17;;;;;;;8.93;5.85;;;17.50;99.90;;;;;;4982875;28;20027;-75
2021/07/19 03:37:44;;;;;;;9.20;6.20;;;17.50;99.90;;;;;;4978978;28;20030;-75
2021/07/19 03:40:11;;;;;;;8.75;6.40;;;17.30;99.90;;;;;;4976247;28;20077;-75
2021/07/19 03:42:37;;;;;;;10.85;6.63;;;17.00;99.90;;;;;;4985370;28;20636;-75
2021/07/19 03:45:03;;;;;;;8.50;6.43;;;17.00;99.90;;;;;;4982661;28;20026;-75
2021/07/19 03:47:29;;;;;;;9.15;5.93;;;17.10;99.90;;;;;;5040914;23;20046;-75
2021/07/19 03:49:56;;;;;;;8.90;5.90;;;17.20;99.90;;;;;;5009393;28;20506;-75
2021/07/19 03:52:23;;;;;;;9.18;6.05;;;17.30;99.90;;;;;;5008022;28;20022;-73
2021/07/19 03:54:49;;;;;;;7.90;5.78;;;17.40;99.90;;;;;;5012206;28;20105;-74
2021/07/19 03:57:15;;;;;;;8.27;6.15;;;17.50;99.90;;;;;;5003547;28;20026;-74
2021/07/19 03:59:41;;;;;;;7.78;6.20;;;17.60;99.90;;;;;;4995487;28;20381;-74
2021/07/19 04:02:13;;;;;;;11.15;6.15;;;17.50;99.90;;;;;;4995243;28;20057;-75
2021/07/19 04:04:42;;;;;;;7.88;6.28;;;17.50;99.90;;;;;;4993836;28;20105;-73
2021/07/19 04:07:10;;;;;;;7.25;6.07;;;17.50;99.90;;;;;;5014484;28;20026;-74
2021/07/19 04:09:40;;;;;;;8.13;6.75;;;17.40;99.90;;;;;;4994999;28;20395;-74
2021/07/19 04:12:10;;;;;;;8.40;6.35;;;17.40;99.90;;;;;;5003036;28;20054;-74
2021/07/19 04:14:36;;;;;;;7.55;5.88;;;17.20;99.90;;;;;;4999705;28;20030;-74
2021/07/19 04:17:06;;;;;;;8.52;6.35;;;17.30;99.90;;;;;;5003206;28;20026;-73
2021/07/19 04:19:33;;;;;;;8.38;6.78;;;17.50;99.90;;;;;;5013207;28;20029;-73
2021/07/19 04:21:59;;;;;;;10.77;6.60;;;17.50;99.90;;;;;;5014513;28;20072;-73
2021/07/19 04:24:25;;;;;;;10.27;6.32;;;17.50;99.90;;;;;;5011692;28;20034;-74
2021/07/19 04:26:52;;;;;;;14.40;7.45;;;17.30;99.90;;;;;;4997555;28;20081;-74
2021/07/19 04:29:22;;;;;;;11.05;6.72;;;17.20;99.90;;;;;;4993409;28;20381;-74
2021/07/19 04:31:55;;;;;;;13.18;7.50;;;17.10;99.90;;;;;;4994797;28;20040;-74
2021/07/19 04:34:31;;;;;;;13.98;7.43;;;16.90;99.90;;;;;;4994553;28;20030;-74
2021/07/19 04:37:02;;;;;;;11.68;7.38;;;17.10;99.90;;;;;;5006454;28;20033;-73
2021/07/19 04:39:28;;;;;;;11.57;7.70;;;17.10;99.90;;;;;;5005133;28;20037;-74
2021/07/19 04:41:54;;;;;;;12.82;7.65;;;17.20;99.90;;;;;;4994612;28;20018;-74
2021/07/19 04:44:20;;;;;;;12.27;7.43;;;17.30;99.90;;;;;;5000348;28;20018;-74
2021/07/19 04:46:45;;;;;;;11.98;7.28;;;17.20;99.90;;;;;;5005363;28;20381;-73
2021/07/19 04:49:11;;;;;;;12.32;7.30;;;17.40;99.90;;;;;;4994319;28;20026;-74
2021/07/19 04:51:37;;;;;;;12.65;7.55;;;17.50;99.90;;;;;;4994397;28;20507;-74
2021/07/19 04:54:05;;;;;;;12.60;7.45;;;17.50;99.90;;;;;;4999990;28;20388;-74
2021/07/19 04:56:32;;;;;;;11.73;7.40;;;17.60;99.90;;;;;;5013661;28;20369;-73
2021/07/19 04:59:00;;;;;;;9.15;7.68;;;17.50;99.90;;;;;;5013759;28;20026;-74
2021/07/19 05:01:28;;;;;;;9.13;7.32;;;17.60;99.90;;;;;;5012526;28;20075;-73
2021/07/19 05:03:56;;;;;;;13.10;7.38;;;17.70;99.90;;;;;;4980276;28;20089;-74
2021/07/19 05:06:25;;;;;;;12.65;7.40;;;17.80;99.90;;;;;;5006798;28;20479;-74
2021/07/19 05:08:51;;;;;;;11.63;7.05;;;17.80;99.90;;;;;;5013708;28;20026;-73
2021/07/19 05:11:19;;;;;;;11.35;7.18;;;17.90;99.90;;;;;;5013554;28;20109;-73
2021/07/19 05:13:46;;;;;;;9.45;6.78;;;18.00;99.90;;;;;;5013574;28;20091;-74
2021/07/19 05:16:12;;;;;;;12.10;7.25;;;17.90;99.90;;;;;;5013130;28;20037;-73
2021/07/19 05:18:39;;;;;;;11.48;7.65;;;17.60;99.90;;;;;;5013388;28;20030;-73
2021/07/19 05:21:05;;;;;;;11.95;7.35;;;17.70;99.90;;;;;;5013397;28;20041;-74
2021/07/19 05:23:31;;;;;;;9.98;7.40;;;17.50;99.90;;;;;;5012175;28;20050;-73
2021/07/19 05:25:56;;;;;;;11.27;7.35;;;17.50;99.90;;;;;;5011810;28;20427;-74
2021/07/19 05:28:22;;;;;;;14.32;8.23;;;17.50;99.90;;;;;;5006263;28;20030;-72
2021/07/19 05:30:52;;;;;;;8.05;7.03;;;17.60;99.90;;;;;;5006839;28;20026;-73
2021/07/19 05:33:20;;;;;;;13.23;8.23;;;17.70;99.90;;;;;;5001669;28;20030;-73
2021/07/19 05:35:46;;;;;;;13.05;7.40;;;17.90;99.90;;;;;;4999838;28;20030;-72
2021/07/19 05:38:12;;;;;;;8.82;6.72;;;18.10;99.90;;;;;;5005333;28;20031;-72
2021/07/19 05:40:38;;;;;;;13.68;7.30;;;18.30;99.90;;;;;;4994348;28;20118;-72
2021/07/19 05:43:04;;;;;;;12.90;8.07;;;18.50;99.90;;;;;;5003231;28;20022;-73
2021/07/19 05:45:30;;;;;;;11.63;7.05;;;18.60;99.90;;;;;;5006645;28;20101;-72
2021/07/19 05:47:58;;;;;;;11.18;7.30;;;18.70;99.90;;;;;;5001866;28;20120;-72
2021/07/19 05:50:24;;;;;;;11.23;7.43;;;18.60;99.90;;;;;;5000006;28;20429;-73
2021/07/19 05:52:49;;;;;;;9.73;7.10;;;18.60;99.90;;;;;;5004290;28;20057;-72
2021/07/19 05:55:16;;;;;;;12.00;7.80;;;18.50;99.90;;;;;;5006297;28;20022;-73
2021/07/19 05:57:41;;;;;;;12.90;7.45;;;18.40;99.90;;;;;;5001529;28;20018;-73
2021/07/19 06:00:11;;;;;;;9.23;7.70;;;18.10;99.90;;;;;;4999278;28;20041;-73
2021/07/19 06:02:36;;;;;;;9.05;7.28;;;17.90;99.90;;;;;;5003693;28;20033;-74
2021/07/19 06:05:03;;;;;;;11.30;7.65;;;18.00;99.90;;;;;;5006262;28;20412;-73
2021/07/19 06:07:29;;;;;;;10.25;8.02;;;18.20;99.90;;;;;;5001873;28;20486;-73
2021/07/19 06:09:54;;;;;;;12.13;7.63;;;18.30;99.90;;;;;;4999451;28;20027;-74
2021/07/19 06:12:20;;;;;;;8.88;7.38;;;18.50;99.90;;;;;;5012665;28;20041;-75
2021/07/19 06:14:46;;;;;;;10.55;7.35;;;18.70;99.90;;;;;;4996984;28;20073;-75
2021/07/19 06:17:13;;;;;;;10.18;7.00;;;19.10;99.90;;;;;;4991352;28;20592;-74
2021/07/19 06:19:40;;;;;;;12.02;7.47;;;19.50;99.90;;;;;;4991459;28;20022;-74
2021/07/19 06:22:08;;;;;;;10.55;7.07;;;19.60;99.90;;;;;;4991582;28;20018;-74
2021/07/19 06:24:33;;;;;;;11.45;7.65;;;19.90;99.90;;;;;;4991251;28;20041;-74
2021/07/19 06:26:58;;;;;;;8.80;6.82;;;20.10;99.90;;;;;;4992514;28;20030;-75
2021/07/19 06:29:24;;;;;;;9.15;6.78;;;20.20;99.90;;;;;;4992717;28;20030;-75
2021/07/19 06:31:50;;;;;;;9.23;7.32;;;20.20;99.90;;;;;;4992661;28;20026;-74
2021/07/19 06:34:15;;;;;;;21.75;6.78;;;20.30;99.90;;;;;;5006610;28;20026;-74
2021/07/19 06:36:41;;;;;;;8.90;5.85;;;20.40;99.90;;;;;;4992344;28;20026;-75
2021/07/19 06:39:08;;;;;;;10.15;6.68;;;20.50;99.90;;;;;;4995273;28;20022;-74
2021/07/19 06:41:34;;;;;;;11.43;7.20;;;20.50;99.90;;;;;;5002476;28;20527;-75
2021/07/19 06:43:59;;;;;;;10.30;6.43;;;20.80;99.90;;;;;;4992476;28;20038;-75
2021/07/19 06:46:25;;;;;;;9.80;6.70;;;20.80;99.90;;;;;;4992023;28;20041;-75
2021/07/19 06:48:50;;;;;;;9.77;8.02;;;20.80;99.90;;;;;;4995502;28;20022;-75
2021/07/19 06:51:17;;;;;;;9.20;6.50;;;21.00;99.90;;;;;;5002556;28;20033;-74
2021/07/19 06:53:42;;;;;;;9.88;7.22;;;20.90;99.90;;;;;;4992388;28;20041;-75
2021/07/19 06:56:08;;;;;;;10.00;7.03;;;20.90;99.90;;;;;;4992134;28;20400;-72
2021/07/19 06:58:34;;;;;;;10.02;6.63;;;20.80;99.90;;;;;;4992163;28;20035;-74
2021/07/19 07:00:59;;;;;;;12.50;7.10;;;20.60;99.90;;;;;;4992480;28;20373;-75
2021/07/19 07:03:25;;;;;;;9.82;6.18;;;20.80;99.90;;;;;;4992181;28;20026;-74
2021/07/19 07:05:51;;;;;;;9.82;6.57;;;20.90;99.90;;;;;;4992527;28;20029;-74
2021/07/19 07:08:16;;;;;;;7.75;6.68;;;20.90;99.90;;;;;;4992380;28;20047;-74
2021/07/19 07:10:42;;;;;;;8.07;6.50;;;20.90;99.90;;;;;;4990487;28;20084;-74
2021/07/19 07:13:10;;;;;;;8.90;6.20;;;21.00;99.90;;;;;;5000076;28;20073;-74
2021/07/19 07:15:39;;;;;;;9.73;5.57;;;20.80;99.90;;;;;;5001392;28;20377;-74
2021/07/19 07:18:08;;;;;;;11.38;6.22;;;20.70;99.90;;;;;;4998402;28;20538;-75
2021/07/19 07:20:35;;;;;;;10.18;6.35;;;20.70;99.90;;;;;;5011851;28;20109;-76
2021/07/19 07:23:01;;;;;;;7.63;6.50;;;20.80;99.90;;;;;;4998699;28;20045;-74
2021/07/19 07:25:27;;;;;;;7.18;5.80;;;21.20;99.90;;;;;;5011279;28;20089;-74
2021/07/19 07:27:52;;;;;;;6.63;5.68;;;21.30;99.90;;;;;;5009158;28;20022;-75
2021/07/19 07:30:18;;;;;;;9.32;6.03;;;21.60;99.90;;;;;;4995680;28;20057;-74
2021/07/19 07:32:44;;;;;;;6.25;5.15;;;21.80;99.90;;;;;;4999632;28;20022;-76
2021/07/19 07:35:10;;;;;;;6.55;5.90;;;21.80;99.90;;;;;;4998455;28;20034;-75
2021/07/19 07:37:37;;;;;;;12.60;6.30;;;21.80;99.90;;;;;;4994653;28;20036;-74
2021/07/19 07:40:06;;;;;;;7.78;6.32;;;21.80;99.90;;;;;;4995612;28;20026;-73
2021/07/19 07:42:32;;;;;;;6.32;5.03;;;21.80;99.90;;;;;;4995843;28;20026;-73
2021/07/19 07:44:58;;;;;;;8.32;5.38;;;22.00;99.90;;;;;;5003757;28;20022;-73
2021/07/19 07:47:24;;;;;;;7.38;5.40;;;22.20;99.90;;;;;;4998318;28;20057;-74
2021/07/19 07:49:50;;;;;;;8.70;5.50;;;22.40;99.90;;;;;;5006611;28;20026;-73
2021/07/19 07:52:16;;;;;;;8.80;5.53;;;22.10;99.90;;;;;;5015200;28;20076;-75
2021/07/19 07:54:42;;;;;;;8.57;5.72;;;22.20;99.90;;;;;;5014921;28;20109;-73
2021/07/19 07:57:08;;;;;;;10.05;6.35;;;22.30;99.90;;;;;;5014939;28;20036;-73
2021/07/19 07:59:34;;;;;;;11.98;5.80;;;21.90;99.90;;;;;;5004581;28;20551;-73
2021/07/19 08:02:00;;;;;;;7.40;5.72;;;21.70;99.90;;;;;;4995743;28;20380;-73
2021/07/19 08:04:28;;;;;;;8.70;6.03;;;21.60;99.90;;;;;;4995385;28;20054;-73
2021/07/19 08:06:57;;;;;;;8.25;5.90;;;21.80;99.90;;;;;;4995127;28;20026;-74
2021/07/19 08:09:22;;;;;;;7.88;5.85;;;21.80;99.90;;;;;;4995250;28;20041;-73
2021/07/19 08:11:48;;;;;;;7.35;6.20;;;21.80;99.90;;;;;;4995322;28;20023;-72
2021/07/19 08:14:14;;;;;;;13.40;6.50;;;22.00;99.90;;;;;;4993806;28;20407;-73
2021/07/19 08:16:40;;;;;;;8.43;6.65;;;21.90;99.90;;;;;;4993504;28;20161;-73
2021/07/19 08:19:08;;;;;;;83.70;29.55;;;22.00;99.90;;;;;;4994942;28;20030;-74
2021/07/19 08:21:35;;;;;;;12.60;8.32;;;22.10;99.90;;;;;;4994830;28;20027;-73
2021/07/19 08:24:01;;;;;;;9.13;7.43;;;21.90;99.90;;;;;;4993730;28;20026;-73
2021/07/19 08:26:27;;;;;;;10.27;6.57;;;21.60;99.90;;;;;;4994713;28;20033;-75
2021/07/19 08:28:54;;;;;;;9.13;7.15;;;21.60;99.90;;;;;;4994935;28;20026;-73
2021/07/19 08:31:20;;;;;;;8.80;6.72;;;21.60;99.90;;;;;;4997959;28;20156;-73
2021/07/19 08:33:45;;;;;;;11.00;7.40;;;21.80;99.90;;;;;;5003847;28;20500;-73
2021/07/19 08:36:12;;;;;;;9.77;6.97;;;22.30;99.90;;;;;;4993281;28;20022;-73
2021/07/19 08:38:38;;;;;;;13.32;7.78;;;22.80;99.90;;;;;;4994594;28;20480;-72
2021/07/19 08:41:04;;;;;;;8.23;6.47;;;22.90;99.90;;;;;;4994775;28;20037;-73
2021/07/19 08:43:32;;;;;;;10.88;7.05;;;23.00;99.90;;;;;;5006551;28;20025;-74
2021/07/19 08:45:58;;;;;;;8.48;6.68;;;23.20;99.90;;;;;;5008128;28;20057;-76
2021/07/19 08:48:24;;;;;;;10.32;7.40;;;23.30;99.90;;;;;;5005498;28;20487;-72
2021/07/19 08:50:49;;;;;;;10.63;7.38;;;22.80;99.90;;;;;;5000981;28;20115;-74
2021/07/19 08:53:15;;;;;;;11.80;7.65;;;22.80;99.90;;;;;;5013980;28;20040;-75
2021/07/19 08:55:42;;;;;;;11.95;8.02;;;22.80;99.90;;;;;;5013693;28;20575;-75
2021/07/19 08:58:11;;;;;;;10.15;7.90;;;23.20;99.90;;;;;;5013808;28;20392;-74
2021/07/19 09:00:37;;;;;;;10.57;7.85;;;23.00;99.90;;;;;;4994769;28;20022;-74
2021/07/19 09:03:03;;;;;;;10.98;8.00;;;23.10;99.90;;;;;;5007237;28;20108;-75
2021/07/19 09:05:30;;;;;;;9.50;8.00;;;23.50;99.90;;;;;;5013503;28;20033;-75
2021/07/19 09:07:57;;;;;;;10.70;7.70;;;23.50;99.90;;;;;;5013683;28;20384;-75
2021/07/19 09:10:28;;;;;;;11.90;7.25;;;23.60;99.90;;;;;;5013699;28;20022;-75
2021/07/19 09:12:58;;;;;;;10.43;7.55;;;23.70;99.90;;;;;;5012259;28;20030;-74
2021/07/19 09:15:36;;;;;;;11.90;8.55;;;23.20;99.90;;;;;;5013349;28;20026;-74
2021/07/19 09:18:05;;;;;;;9.63;8.13;;;22.50;99.90;;;;;;5012172;28;20149;-74
2021/07/19 09:20:39;;;;;;;11.40;8.50;;;22.40;99.90;;;;;;5012090;28;20109;-74
2021/07/19 09:23:07;;;;;;;11.15;8.05;;;22.90;99.90;;;;;;5013392;28;20423;-75
2021/07/19 09:25:33;;;;;;;9.90;7.78;;;23.10;99.90;;;;;;5013110;28;20533;-75
2021/07/19 09:28:04;;;;;;;10.43;7.82;;;23.30;99.90;;;;;;5011854;28;20057;-75
2021/07/19 09:30:34;;;;;;;11.60;7.70;;;23.10;99.90;;;;;;5000869;28;20027;-75
2021/07/19 09:33:06;;;;;;;8.45;7.40;;;23.10;99.90;;;;;;4998453;28;20018;-75
2021/07/19 09:35:34;;;;;;;8.50;7.50;;;23.40;99.90;;;;;;5011693;28;20030;-75
2021/07/19 09:38:07;;;;;;;9.27;6.95;;;23.20;99.90;;;;;;5013035;28;20022;-75
2021/07/19 09:40:35;;;;;;;11.43;7.63;;;23.80;99.90;;;;;;5007045;28;20036;-74
2021/07/19 09:43:11;;;;;;;13.45;7.35;;;23.70;99.90;;;;;;4993491;28;20052;-75
2021/07/19 09:45:37;;;;;;;10.75;8.00;;;23.10;99.90;;;;;;4993126;28;20031;-74
2021/07/19 09:48:07;;;;;;;9.73;7.35;;;22.50;99.90;;;;;;5021825;23;20235;-76
2021/07/19 09:50:44;;;;;;;11.40;8.10;;;23.10;99.90;;;;;;4992793;28;20029;-76
2021/07/19 09:53:11;;;;;;;10.00;8.13;;;22.90;99.90;;;;;;4993249;28;20023;-76
2021/07/19 09:55:37;;;;;;;12.70;7.82;;;23.30;99.90;;;;;;4997855;28;20041;-76
2021/07/19 09:58:04;;;;;;;9.25;7.68;;;23.10;99.90;;;;;;4989733;28;20543;-76
2021/07/19 10:00:32;;;;;;;9.05;7.53;;;22.80;99.90;;;;;;4979531;28;20121;-76
2021/07/19 10:02:58;;;;;;;9.45;7.00;;;23.30;99.90;;;;;;4984306;28;20555;-76
2021/07/19 10:05:26;;;;;;;10.77;7.28;;;23.40;99.90;;;;;;4988000;28;20098;-76
2021/07/19 10:07:52;;;;;;;7.03;6.28;;;23.70;99.90;;;;;;4985386;28;20485;-76
2021/07/19 10:10:18;;;;;;;7.88;6.63;;;23.60;99.90;;;;;;4980081;28;20034;-77
2021/07/19 10:12:43;;;;;;;8.38;6.55;;;23.50;99.90;;;;;;4981257;28;20488;-77
2021/07/19 10:15:13;;;;;;;9.18;6.90;;;23.80;99.90;;;;;;4990115;28;20083;-77
2021/07/19 10:17:40;;;;;;;7.22;6.53;;;24.20;99.90;;;;;;4980494;28;20511;-77
2021/07/19 10:20:07;;;;;;;7.40;6.70;;;24.10;99.90;;;;;;4991479;28;20030;-78
2021/07/19 10:22:33;;;;;;;9.13;6.30;;;24.20;99.90;;;;;;4978697;28;20074;-76
2021/07/19 10:24:59;;;;;;;12.35;6.95;;;24.20;99.90;;;;;;4984925;28;20113;-76
2021/07/19 10:27:29;;;;;;;10.25;6.70;;;23.90;99.90;;;;;;4973622;28;20421;-77
2021/07/19 10:29:56;;;;;;;9.57;6.80;;;23.00;99.90;;;;;;4984759;28;20026;-77
2021/07/19 10:32:23;;;;;;;8.63;7.18;;;23.50;99.90;;;;;;4985169;28;20117;-76
2021/07/19 10:34:54;;;;;;;12.50;6.97;;;23.90;99.90;;;;;;4980829;28;20484;-76
2021/07/19 10:37:28;;;;;;;8.25;6.45;;;23.70;99.90;;;;;;4978683;28;20291;-76
2021/07/19 10:39:56;;;;;;;9.43;6.30;;;23.90;99.90;;;;;;4987086;28;20393;-76
2021/07/19 10:42:36;;;;;;;11.10;7.15;;;23.30;99.90;;;;;;4985067;28;20559;-77
2021/07/19 10:45:10;;;;;;;8.93;6.53;;;23.20;99.90;;;;;;4985815;28;20042;-78
2021/07/19 10:47:48;;;;;;;12.75;5.90;;;23.40;99.90;;;;;;4979074;28;20507;-77
2021/07/19 10:50:17;;;;;;;6.20;5.60;;;24.00;99.90;;;;;;4979722;28;20035;-76
2021/07/19 10:52:42;;;;;;;11.00;6.10;;;24.20;99.90;;;;;;4983364;28;20030;-76
2021/07/19 10:55:11;;;;;;;8.95;6.38;;;23.30;99.90;;;;;;4988257;28;20034;-76
2021/07/19 10:57:46;;;;;;;7.65;5.93;;;24.00;99.90;;;;;;5002880;28;20121;-77
2021/07/19 11:00:20;;;;;;;7.78;5.43;;;23.90;99.90;;;;;;4978057;28;20034;-75
2021/07/19 11:02:45;;;;;;;9.43;5.53;;;23.30;99.90;;;;;;4982245;28;20030;-75
2021/07/19 11:05:14;;;;;;;9.40;5.38;;;23.20;99.90;;;;;;4990337;28;20026;-76
2021/07/19 11:07:45;;;;;;;9.75;5.97;;;24.00;99.90;;;;;;4987669;28;20022;-75
2021/07/19 11:10:19;;;;;;;7.40;6.03;;;24.30;99.90;;;;;;4977553;28;20381;-76
2021/07/19 11:12:52;;;;;;;8.48;6.10;;;24.10;99.90;;;;;;4976954;28;20540;-75
2021/07/19 11:15:21;;;;;;;10.65;6.32;;;23.80;99.90;;;;;;4983271;28;20027;-75
2021/07/19 11:17:47;;;;;;;8.48;6.00;;;23.70;99.90;;;;;;4981592;28;20030;-76
2021/07/19 11:20:15;;;;;;;7.95;6.03;;;24.50;99.90;;;;;;4990339;28;20033;-77
2021/07/19 11:22:41;;;;;;;7.75;6.10;;;24.70;99.90;;;;;;5002554;28;20101;-76
2021/07/19 11:25:17;;;;;;;7.00;6.30;;;24.20;99.90;;;;;;4982262;28;20121;-76
2021/07/19 11:27:45;;;;;;;9.57;6.38;;;24.30;99.90;;;;;;4996100;28;20037;-76
2021/07/19 11:30:19;;;;;;;7.78;6.10;;;24.90;99.90;;;;;;4986495;28;20027;-75
2021/07/19 11:32:45;;;;;;;6.88;5.80;;;25.00;99.90;;;;;;4980782;28;20033;-75
2021/07/19 11:35:17;;;;;;;7.47;5.75;;;25.20;99.90;;;;;;5005916;28;20026;-76
2021/07/19 11:37:46;;;;;;;9.05;6.50;;;25.00;99.90;;;;;;5009131;28;20037;-77
2021/07/19 11:40:14;;;;;;;8.55;6.00;;;24.60;99.90;;;;;;4981140;28;20086;-76
2021/07/19 11:42:42;;;;;;;10.10;5.85;;;25.20;99.90;;;;;;4993269;28;20019;-75
2021/07/19 11:45:13;;;;;;;8.27;5.70;;;25.40;99.90;;;;;;4994278;28;20030;-76
2021/07/19 11:47:41;;;;;;;9.05;5.57;;;25.60;99.90;;;;;;4997877;28;20029;-75
2021/07/19 11:50:07;;;;;;;10.52;6.13;;;25.20;99.90;;;;;;5000683;28;20515;-76
2021/07/19 11:52:33;;;;;;;8.65;6.30;;;25.50;99.90;;;;;;4993364;28;20026;-78
2021/07/19 11:54:59;;;;;;;9.77;4.90;;;25.90;99.90;;;;;;5003474;28;20041;-78
2021/07/19 11:57:25;;;;;;;9.25;5.38;;;25.70;99.90;;;;;;5001021;28;20439;-73
2021/07/19 11:59:51;;;;;;;6.85;5.40;;;25.70;99.90;;;;;;4987273;28;20488;-74
2021/07/19 12:02:26;;;;;;;9.27;5.70;;;25.50;99.90;;;;;;4988637;28;20034;-76
2021/07/19 12:04:52;;;;;;;7.05;6.07;;;26.20;99.90;;;;;;5003759;28;20026;-74
2021/07/19 12:07:18;;;;;;;8.27;5.93;;;26.10;99.90;;;;;;5003171;28;20041;-75
2021/07/19 12:09:45;;;;;;;9.75;6.35;;;26.30;99.90;;;;;;4998965;28;20154;-75
2021/07/19 12:12:12;;;;;;;7.53;6.25;;;26.20;99.90;;;;;;4992109;28;20022;-75
2021/07/19 12:14:38;;;;;;;8.88;6.15;;;25.40;99.90;;;;;;4997802;28;20026;-75
2021/07/19 12:17:05;;;;;;;9.07;6.50;;;24.90;99.90;;;;;;4983606;28;20381;-74
2021/07/19 12:19:30;;;;;;;6.15;5.38;;;24.80;99.90;;;;;;4993558;28;20286;-75
2021/07/19 12:21:59;;;;;;;8.85;5.43;;;25.50;99.90;;;;;;4983483;28;20605;-75
2021/07/19 12:24:27;;;;;;;7.05;5.32;;;25.40;99.90;;;;;;4980444;28;20075;-75
2021/07/19 12:26:55;;;;;;;8.48;5.88;;;25.90;99.90;;;;;;4994975;28;20023;-75
2021/07/19 12:29:28;;;;;;;7.72;4.97;;;26.60;99.90;;;;;;4991356;28;20034;-77
2021/07/19 12:31:55;;;;;;;7.78;5.15;;;26.60;99.90;;;;;;4985750;28;20369;-76
2021/07/19 12:34:30;;;;;;;6.72;5.72;;;26.10;99.90;;;;;;4990837;28;20118;-77
2021/07/19 12:37:01;;;;;;;7.93;5.40;;;25.50;99.90;;;;;;4985671;28;20038;-75
2021/07/19 12:39:33;;;;;;;7.07;4.97;;;25.10;99.90;;;;;;4988953;28;20023;-75
2021/07/19 12:42:08;;;;;;;5.82;4.97;;;26.00;99.90;;;;;;4995379;28;20056;-75
2021/07/19 12:44:34;;;;;;;7.32;5.32;;;26.60;99.90;;;;;;4989166;28;20061;-76